sensor_id;sensor_type;location;lat;lon;timestamp;P1;durP1;ratioP1;P2;durP2;ratioP2
79019;SDS011;72857;44.740;37.770;2023-09-19T15:21:11;16.00;;;4.45;;
79019;SDS011;72857;44.740;37.770;2023-09-19T15:22:13;14.48;;;3.65;;
79019;SDS011;72857;44.740;37.770;2023-09-19T15:23:15;10.23;;;3.80;;
79019;SDS011;72857;44.740;37.770;2023-09-19T15:24:19;8.10;;;4.22;;
79019;SDS011;72857;44.740;37.770;2023-09-19T15:25:53;9.57;;;4.40;;
79019;SDS011;72857;44.740;37.770;2023-09-19T15:26:54;11.82;;;4.43;;
79019;SDS011;72857;44.740;37.770;2023-09-19T15:27:56;6.40;;;3.28;;
79019;SDS011;72857;44.740;37.770;2023-09-19T15:28:58;6.85;;;3.30;;
79019;SDS011;72857;44.740;37.770;2023-09-19T15:30:01;9.10;;;3.22;;
79019;SDS011;72857;44.740;37.770;2023-09-19T15:31:06;7.63;;;3.03;;
79019;SDS011;72857;44.740;37.770;2023-09-19T15:32:09;12.98;;;3.45;;
79019;SDS011;72857;44.740;37.770;2023-09-19T15:33:11;11.82;;;5.97;;
79019;SDS011;72857;44.740;37.770;2023-09-19T15:34:12;14.48;;;6.30;;
79019;SDS011;72857;44.740;37.770;2023-09-19T15:35:16;11.23;;;4.07;;
79019;SDS011;72857;44.740;37.770;2023-09-19T15:36:18;12.88;;;3.25;;
79019;SDS011;72857;44.740;37.770;2023-09-19T15:37:20;12.27;;;3.67;;
79019;SDS011;72857;44.740;37.770;2023-09-19T15:38:21;7.85;;;3.20;;
79019;SDS011;72857;44.740;37.770;2023-09-19T15:39:23;8.10;;;3.20;;
79019;SDS011;72857;44.740;37.770;2023-09-19T15:40:24;8.13;;;3.30;;
79019;SDS011;72857;44.740;37.770;2023-09-19T15:41:30;9.45;;;2.92;;
79019;SDS011;72857;44.740;37.770;2023-09-19T15:42:32;6.43;;;3.17;;
79019;SDS011;72857;44.740;37.770;2023-09-19T15:43:34;12.80;;;3.33;;
79019;SDS011;72857;44.740;37.770;2023-09-19T15:44:35;9.57;;;3.40;;
79019;SDS011;72857;44.740;37.770;2023-09-19T15:45:37;8.75;;;3.08;;
79019;SDS011;72857;44.740;37.770;2023-09-19T15:46:39;8.27;;;3.58;;
79019;SDS011;72857;44.740;37.770;2023-09-19T15:47:41;9.25;;;3.38;;
79019;SDS011;72857;44.740;37.770;2023-09-19T15:48:43;8.93;;;3.58;;
79019;SDS011;72857;44.740;37.770;2023-09-19T15:49:47;8.98;;;4.28;;
79019;SDS011;72857;44.740;37.770;2023-09-19T15:50:49;9.27;;;4.05;;
79019;SDS011;72857;44.740;37.770;2023-09-19T15:51:51;11.52;;;5.50;;
79019;SDS011;72857;44.740;37.770;2023-09-19T15:52:52;12.65;;;3.25;;
79019;SDS011;72857;44.740;37.770;2023-09-19T15:53:58;8.55;;;3.83;;
79019;SDS011;72857;44.740;37.770;2023-09-19T15:55:03;17.05;;;4.13;;
79019;SDS011;72857;44.740;37.770;2023-09-19T15:56:08;12.38;;;4.55;;
79019;SDS011;72857;44.740;37.770;2023-09-19T15:57:10;10.57;;;4.30;;
79019;SDS011;72857;44.740;37.770;2023-09-19T15:58:13;13.05;;;4.63;;
79019;SDS011;72857;44.740;37.770;2023-09-19T15:59:15;13.35;;;4.53;;
79019;SDS011;72857;44.740;37.770;2023-09-19T16:00:16;12.75;;;5.13;;
79019;SDS011;72857;44.740;37.770;2023-09-19T16:01:20;15.70;;;4.97;;
79019;SDS011;72857;44.740;37.770;2023-09-19T16:02:22;14.68;;;4.10;;
79019;SDS011;72857;44.740;37.770;2023-09-19T16:03:24;15.65;;;4.47;;
79019;SDS011;72857;44.740;37.770;2023-09-19T16:04:27;10.77;;;3.80;;
79019;SDS011;72857;44.740;37.770;2023-09-19T16:05:35;10.70;;;3.83;;
79019;SDS011;72857;44.740;37.770;2023-09-19T16:06:38;10.05;;;4.03;;
79019;SDS011;72857;44.740;37.770;2023-09-19T16:07:39;7.50;;;3.55;;
79019;SDS011;72857;44.740;37.770;2023-09-19T16:08:44;10.77;;;4.60;;
79019;SDS011;72857;44.740;37.770;2023-09-19T16:09:50;15.57;;;6.20;;
79019;SDS011;72857;44.740;37.770;2023-09-19T16:10:51;24.17;;;14.02;;
79019;SDS011;72857;44.740;37.770;2023-09-19T16:11:53;16.67;;;11.07;;
79019;SDS011;72857;44.740;37.770;2023-09-19T16:12:54;23.65;;;14.77;;
79019;SDS011;72857;44.740;37.770;2023-09-19T16:13:55;19.88;;;11.07;;
79019;SDS011;72857;44.740;37.770;2023-09-19T16:14:57;20.83;;;9.00;;
79019;SDS011;72857;44.740;37.770;2023-09-19T16:15:59;16.75;;;10.50;;
79019;SDS011;72857;44.740;37.770;2023-09-19T16:17:00;14.32;;;6.55;;
79019;SDS011;72857;44.740;37.770;2023-09-19T16:18:03;47.97;;;16.33;;
79019;SDS011;72857;44.740;37.770;2023-09-19T16:19:05;18.70;;;7.60;;
79019;SDS011;72857;44.740;37.770;2023-09-19T16:20:11;14.05;;;7.75;;
79019;SDS011;72857;44.740;37.770;2023-09-19T16:21:13;11.38;;;6.20;;
79019;SDS011;72857;44.740;37.770;2023-09-19T16:22:14;17.38;;;6.65;;
79019;SDS011;72857;44.740;37.770;2023-09-19T16:23:16;12.40;;;6.40;;
79019;SDS011;72857;44.740;37.770;2023-09-19T16:24:17;12.10;;;4.65;;
79019;SDS011;72857;44.740;37.770;2023-09-19T16:25:18;12.43;;;5.40;;
79019;SDS011;72857;44.740;37.770;2023-09-19T16:26:20;14.30;;;5.32;;
79019;SDS011;72857;44.740;37.770;2023-09-19T16:27:22;12.85;;;8.20;;
79019;SDS011;72857;44.740;37.770;2023-09-19T16:28:24;16.23;;;5.78;;
79019;SDS011;72857;44.740;37.770;2023-09-19T16:29:25;12.27;;;4.63;;
79019;SDS011;72857;44.740;37.770;2023-09-19T16:30:27;11.48;;;4.72;;
79019;SDS011;72857;44.740;37.770;2023-09-19T16:31:29;13.38;;;4.85;;
79019;SDS011;72857;44.740;37.770;2023-09-19T16:33:35;12.27;;;5.07;;
79019;SDS011;72857;44.740;37.770;2023-09-19T16:34:38;13.45;;;5.78;;
79019;SDS011;72857;44.740;37.770;2023-09-19T16:35:39;16.10;;;5.25;;
79019;SDS011;72857;44.740;37.770;2023-09-19T16:36:40;13.13;;;5.07;;
79019;SDS011;72857;44.740;37.770;2023-09-19T16:37:43;10.38;;;5.50;;
79019;SDS011;72857;44.740;37.770;2023-09-19T16:38:46;12.23;;;5.22;;
79019;SDS011;72857;44.740;37.770;2023-09-19T16:39:51;17.35;;;5.07;;
79019;SDS011;72857;44.740;37.770;2023-09-19T16:40:55;11.43;;;4.82;;
79019;SDS011;72857;44.740;37.770;2023-09-19T16:41:59;16.45;;;5.28;;
79019;SDS011;72857;44.740;37.770;2023-09-19T16:43:00;15.85;;;5.72;;
79019;SDS011;72857;44.740;37.770;2023-09-19T16:44:02;8.40;;;5.55;;
79019;SDS011;72857;44.740;37.770;2023-09-19T16:45:08;14.50;;;6.10;;
79019;SDS011;72857;44.740;37.770;2023-09-19T16:46:13;12.45;;;4.93;;
79019;SDS011;72857;44.740;37.770;2023-09-19T16:47:17;11.77;;;5.20;;
79019;SDS011;72857;44.740;37.770;2023-09-19T16:48:19;16.30;;;6.13;;
79019;SDS011;72857;44.740;37.770;2023-09-19T16:49:20;9.90;;;5.80;;
79019;SDS011;72857;44.740;37.770;2023-09-19T16:50:22;13.52;;;5.72;;
79019;SDS011;72857;44.740;37.770;2023-09-19T16:51:23;10.85;;;4.85;;
79019;SDS011;72857;44.740;37.770;2023-09-19T16:52:24;18.08;;;4.43;;
79019;SDS011;72857;44.740;37.770;2023-09-19T16:53:26;11.50;;;4.43;;
79019;SDS011;72857;44.740;37.770;2023-09-19T16:54:27;9.45;;;4.25;;
79019;SDS011;72857;44.740;37.770;2023-09-19T16:55:29;10.60;;;4.22;;
79019;SDS011;72857;44.740;37.770;2023-09-19T16:56:30;10.57;;;3.75;;
79019;SDS011;72857;44.740;37.770;2023-09-19T16:57:37;10.40;;;4.65;;
79019;SDS011;72857;44.740;37.770;2023-09-19T16:58:40;16.30;;;5.60;;
79019;SDS011;72857;44.740;37.770;2023-09-19T16:59:43;11.00;;;4.82;;
79019;SDS011;72857;44.740;37.770;2023-09-19T17:00:44;8.52;;;5.00;;
79019;SDS011;72857;44.740;37.770;2023-09-19T17:01:50;12.93;;;4.53;;
79019;SDS011;72857;44.740;37.770;2023-09-19T17:02:51;9.95;;;4.95;;
79019;SDS011;72857;44.740;37.770;2023-09-19T17:03:53;12.32;;;4.53;;
79019;SDS011;72857;44.740;37.770;2023-09-19T17:04:54;9.77;;;4.65;;
79019;SDS011;72857;44.740;37.770;2023-09-19T17:05:58;11.05;;;5.05;;
79019;SDS011;72857;44.740;37.770;2023-09-19T17:06:59;12.10;;;5.65;;
79019;SDS011;72857;44.740;37.770;2023-09-19T17:08:01;9.63;;;4.95;;
79019;SDS011;72857;44.740;37.770;2023-09-19T17:09:02;13.30;;;5.43;;
79019;SDS011;72857;44.740;37.770;2023-09-19T17:10:05;11.63;;;5.25;;
79019;SDS011;72857;44.740;37.770;2023-09-19T17:11:09;11.27;;;5.03;;
79019;SDS011;72857;44.740;37.770;2023-09-19T17:12:11;12.25;;;4.70;;
79019;SDS011;72857;44.740;37.770;2023-09-19T17:13:14;10.73;;;4.13;;
79019;SDS011;72857;44.740;37.770;2023-09-19T17:14:16;9.38;;;4.40;;
79019;SDS011;72857;44.740;37.770;2023-09-19T17:15:17;11.43;;;4.43;;
79019;SDS011;72857;44.740;37.770;2023-09-19T17:16:19;15.10;;;4.57;;
79019;SDS011;72857;44.740;37.770;2023-09-19T17:17:22;8.38;;;4.20;;
79019;SDS011;72857;44.740;37.770;2023-09-19T17:18:24;8.35;;;4.13;;
79019;SDS011;72857;44.740;37.770;2023-09-19T17:19:25;9.77;;;5.07;;
79019;SDS011;72857;44.740;37.770;2023-09-19T17:20:27;10.23;;;5.18;;
79019;SDS011;72857;44.740;37.770;2023-09-19T17:21:31;9.73;;;4.75;;
79019;SDS011;72857;44.740;37.770;2023-09-19T17:22:32;12.20;;;4.15;;
79019;SDS011;72857;44.740;37.770;2023-09-19T17:23:34;6.78;;;3.97;;
79019;SDS011;72857;44.740;37.770;2023-09-19T17:24:35;9.38;;;4.03;;
79019;SDS011;72857;44.740;37.770;2023-09-19T17:25:37;12.30;;;3.95;;
79019;SDS011;72857;44.740;37.770;2023-09-19T17:26:38;7.97;;;3.70;;
79019;SDS011;72857;44.740;37.770;2023-09-19T17:27:39;8.15;;;3.65;;
79019;SDS011;72857;44.740;37.770;2023-09-19T17:28:41;7.18;;;3.40;;
79019;SDS011;72857;44.740;37.770;2023-09-19T17:29:42;5.95;;;3.45;;
79019;SDS011;72857;44.740;37.770;2023-09-19T17:30:43;9.85;;;3.55;;
79019;SDS011;72857;44.740;37.770;2023-09-19T17:31:45;7.68;;;3.30;;
79019;SDS011;72857;44.740;37.770;2023-09-19T17:32:46;7.97;;;3.22;;
79019;SDS011;72857;44.740;37.770;2023-09-19T17:33:48;9.43;;;3.75;;
79019;SDS011;72857;44.740;37.770;2023-09-19T17:34:51;8.68;;;3.78;;
79019;SDS011;72857;44.740;37.770;2023-09-19T17:36:03;9.85;;;4.10;;
79019;SDS011;72857;44.740;37.770;2023-09-19T17:37:07;13.60;;;4.75;;
79019;SDS011;72857;44.740;37.770;2023-09-19T17:38:09;12.93;;;4.20;;
79019;SDS011;72857;44.740;37.770;2023-09-19T17:39:11;9.98;;;3.83;;
79019;SDS011;72857;44.740;37.770;2023-09-19T17:40:16;8.80;;;3.25;;
79019;SDS011;72857;44.740;37.770;2023-09-19T17:41:17;10.48;;;4.32;;
79019;SDS011;72857;44.740;37.770;2023-09-19T17:42:19;6.78;;;3.88;;
79019;SDS011;72857;44.740;37.770;2023-09-19T17:43:21;6.13;;;3.58;;
79019;SDS011;72857;44.740;37.770;2023-09-19T17:44:22;9.52;;;3.90;;
79019;SDS011;72857;44.740;37.770;2023-09-19T17:45:24;9.10;;;3.38;;
79019;SDS011;72857;44.740;37.770;2023-09-19T17:46:25;10.82;;;3.70;;
79019;SDS011;72857;44.740;37.770;2023-09-19T17:47:30;14.10;;;5.13;;
79019;SDS011;72857;44.740;37.770;2023-09-19T17:48:31;16.67;;;7.47;;
79019;SDS011;72857;44.740;37.770;2023-09-19T17:49:33;11.18;;;5.85;;
79019;SDS011;72857;44.740;37.770;2023-09-19T17:50:34;11.05;;;4.57;;
79019;SDS011;72857;44.740;37.770;2023-09-19T17:51:37;18.63;;;4.25;;
79019;SDS011;72857;44.740;37.770;2023-09-19T17:52:43;9.25;;;3.85;;
79019;SDS011;72857;44.740;37.770;2023-09-19T17:53:45;8.35;;;3.67;;
79019;SDS011;72857;44.740;37.770;2023-09-19T17:54:48;12.45;;;6.60;;
79019;SDS011;72857;44.740;37.770;2023-09-19T17:55:52;7.25;;;3.42;;
79019;SDS011;72857;44.740;37.770;2023-09-19T17:56:54;9.25;;;3.53;;
79019;SDS011;72857;44.740;37.770;2023-09-19T17:57:56;10.20;;;4.03;;
79019;SDS011;72857;44.740;37.770;2023-09-19T17:58:59;7.70;;;3.30;;
79019;SDS011;72857;44.740;37.770;2023-09-19T18:00:01;9.85;;;3.95;;
79019;SDS011;72857;44.740;37.770;2023-09-19T18:01:16;10.40;;;4.40;;
79019;SDS011;72857;44.740;37.770;2023-09-19T18:02:23;16.83;;;6.25;;
79019;SDS011;72857;44.740;37.770;2023-09-19T18:03:25;10.93;;;5.20;;
79019;SDS011;72857;44.740;37.770;2023-09-19T18:04:26;8.80;;;5.07;;
79019;SDS011;72857;44.740;37.770;2023-09-19T18:05:30;13.10;;;5.47;;
79019;SDS011;72857;44.740;37.770;2023-09-19T18:06:31;12.82;;;4.53;;
79019;SDS011;72857;44.740;37.770;2023-09-19T18:07:33;14.10;;;4.20;;
79019;SDS011;72857;44.740;37.770;2023-09-19T18:08:35;10.98;;;4.55;;
79019;SDS011;72857;44.740;37.770;2023-09-19T18:09:37;13.40;;;4.70;;
79019;SDS011;72857;44.740;37.770;2023-09-19T18:10:39;15.00;;;4.50;;
79019;SDS011;72857;44.740;37.770;2023-09-19T18:11:41;12.68;;;5.50;;
79019;SDS011;72857;44.740;37.770;2023-09-19T18:12:43;12.40;;;4.45;;
79019;SDS011;72857;44.740;37.770;2023-09-19T18:13:45;11.88;;;4.63;;
79019;SDS011;72857;44.740;37.770;2023-09-19T18:14:52;11.18;;;4.13;;
79019;SDS011;72857;44.740;37.770;2023-09-19T18:15:54;8.40;;;4.25;;
79019;SDS011;72857;44.740;37.770;2023-09-19T18:16:56;8.48;;;3.78;;
79019;SDS011;72857;44.740;37.770;2023-09-19T18:17:58;16.52;;;7.45;;
79019;SDS011;72857;44.740;37.770;2023-09-19T18:19:01;14.80;;;5.10;;
79019;SDS011;72857;44.740;37.770;2023-09-19T18:20:04;10.57;;;4.40;;
79019;SDS011;72857;44.740;37.770;2023-09-19T18:21:07;13.25;;;4.78;;
79019;SDS011;72857;44.740;37.770;2023-09-19T18:22:08;10.65;;;4.50;;
79019;SDS011;72857;44.740;37.770;2023-09-19T18:23:12;8.90;;;4.07;;
79019;SDS011;72857;44.740;37.770;2023-09-19T18:24:14;9.38;;;4.30;;
79019;SDS011;72857;44.740;37.770;2023-09-19T18:25:15;12.02;;;5.75;;
79019;SDS011;72857;44.740;37.770;2023-09-19T18:26:18;12.88;;;5.18;;
79019;SDS011;72857;44.740;37.770;2023-09-19T18:27:19;11.38;;;5.00;;
79019;SDS011;72857;44.740;37.770;2023-09-19T18:28:21;10.45;;;5.13;;
79019;SDS011;72857;44.740;37.770;2023-09-19T18:29:23;17.02;;;6.57;;
79019;SDS011;72857;44.740;37.770;2023-09-19T18:30:25;12.55;;;5.15;;
79019;SDS011;72857;44.740;37.770;2023-09-19T18:31:28;14.77;;;4.80;;
79019;SDS011;72857;44.740;37.770;2023-09-19T18:32:29;19.30;;;5.97;;
79019;SDS011;72857;44.740;37.770;2023-09-19T18:33:32;14.38;;;5.60;;
79019;SDS011;72857;44.740;37.770;2023-09-19T18:34:36;17.48;;;5.63;;
79019;SDS011;72857;44.740;37.770;2023-09-19T18:35:38;11.65;;;6.20;;
79019;SDS011;72857;44.740;37.770;2023-09-19T18:36:41;15.43;;;5.50;;
79019;SDS011;72857;44.740;37.770;2023-09-19T18:37:43;16.73;;;5.85;;
79019;SDS011;72857;44.740;37.770;2023-09-19T18:38:48;13.88;;;4.25;;
79019;SDS011;72857;44.740;37.770;2023-09-19T18:39:50;13.18;;;4.72;;
79019;SDS011;72857;44.740;37.770;2023-09-19T18:40:52;13.07;;;5.30;;
79019;SDS011;72857;44.740;37.770;2023-09-19T18:41:53;14.93;;;4.82;;
79019;SDS011;72857;44.740;37.770;2023-09-19T18:42:55;17.58;;;6.15;;
79019;SDS011;72857;44.740;37.770;2023-09-19T18:43:56;15.88;;;5.80;;
79019;SDS011;72857;44.740;37.770;2023-09-19T18:44:59;11.60;;;5.63;;
79019;SDS011;72857;44.740;37.770;2023-09-19T18:46:01;20.08;;;6.30;;
79019;SDS011;72857;44.740;37.770;2023-09-19T18:47:02;16.75;;;6.07;;
79019;SDS011;72857;44.740;37.770;2023-09-19T18:48:04;20.42;;;6.05;;
79019;SDS011;72857;44.740;37.770;2023-09-19T18:49:06;13.95;;;5.97;;
79019;SDS011;72857;44.740;37.770;2023-09-19T18:50:08;17.58;;;6.22;;
79019;SDS011;72857;44.740;37.770;2023-09-19T18:51:10;14.10;;;5.00;;
79019;SDS011;72857;44.740;37.770;2023-09-19T18:52:15;13.35;;;4.80;;
79019;SDS011;72857;44.740;37.770;2023-09-19T18:53:17;19.60;;;7.82;;
79019;SDS011;72857;44.740;37.770;2023-09-19T18:54:22;18.17;;;6.47;;
79019;SDS011;72857;44.740;37.770;2023-09-19T18:55:24;10.82;;;4.88;;
79019;SDS011;72857;44.740;37.770;2023-09-19T18:56:26;10.55;;;4.90;;
79019;SDS011;72857;44.740;37.770;2023-09-19T18:57:28;16.05;;;4.95;;
79019;SDS011;72857;44.740;37.770;2023-09-19T18:58:29;13.65;;;4.57;;
79019;SDS011;72857;44.740;37.770;2023-09-19T18:59:31;11.68;;;4.90;;
79019;SDS011;72857;44.740;37.770;2023-09-19T19:00:34;16.65;;;4.63;;
79019;SDS011;72857;44.740;37.770;2023-09-19T19:01:36;17.23;;;5.07;;
79019;SDS011;72857;44.740;37.770;2023-09-19T19:02:37;13.60;;;5.15;;
79019;SDS011;72857;44.740;37.770;2023-09-19T19:03:39;12.68;;;4.07;;
79019;SDS011;72857;44.740;37.770;2023-09-19T19:04:45;13.95;;;5.10;;
79019;SDS011;72857;44.740;37.770;2023-09-19T19:05:47;11.35;;;4.93;;
79019;SDS011;72857;44.740;37.770;2023-09-19T19:06:48;9.57;;;4.20;;
79019;SDS011;72857;44.740;37.770;2023-09-19T19:07:49;9.55;;;5.38;;
79019;SDS011;72857;44.740;37.770;2023-09-19T19:08:51;17.35;;;5.68;;
79019;SDS011;72857;44.740;37.770;2023-09-19T19:09:54;11.70;;;5.40;;
79019;SDS011;72857;44.740;37.770;2023-09-19T19:10:56;9.23;;;4.50;;
79019;SDS011;72857;44.740;37.770;2023-09-19T19:11:57;19.48;;;5.43;;
79019;SDS011;72857;44.740;37.770;2023-09-19T19:12:59;15.02;;;5.32;;
79019;SDS011;72857;44.740;37.770;2023-09-19T19:14:02;13.63;;;5.20;;
79019;SDS011;72857;44.740;37.770;2023-09-19T19:15:03;17.42;;;5.72;;
79019;SDS011;72857;44.740;37.770;2023-09-19T19:16:07;15.85;;;6.22;;
79019;SDS011;72857;44.740;37.770;2023-09-19T19:17:11;26.33;;;9.10;;
79019;SDS011;72857;44.740;37.770;2023-09-19T19:18:14;19.90;;;7.53;;
79019;SDS011;72857;44.740;37.770;2023-09-19T19:19:16;30.80;;;8.15;;
79019;SDS011;72857;44.740;37.770;2023-09-19T19:20:17;13.88;;;6.60;;
79019;SDS011;72857;44.740;37.770;2023-09-19T19:21:24;19.65;;;5.93;;
79019;SDS011;72857;44.740;37.770;2023-09-19T19:22:26;16.42;;;5.55;;
79019;SDS011;72857;44.740;37.770;2023-09-19T19:23:29;16.85;;;5.53;;
79019;SDS011;72857;44.740;37.770;2023-09-19T19:24:31;16.98;;;5.10;;
79019;SDS011;72857;44.740;37.770;2023-09-19T19:25:35;9.77;;;5.97;;
79019;SDS011;72857;44.740;37.770;2023-09-19T19:26:37;10.93;;;5.22;;
79019;SDS011;72857;44.740;37.770;2023-09-19T19:27:39;10.75;;;5.75;;
79019;SDS011;72857;44.740;37.770;2023-09-19T19:28:41;15.27;;;5.93;;
79019;SDS011;72857;44.740;37.770;2023-09-19T19:29:44;11.07;;;5.30;;
79019;SDS011;72857;44.740;37.770;2023-09-19T19:30:47;9.82;;;5.30;;
79019;SDS011;72857;44.740;37.770;2023-09-19T19:31:50;10.68;;;5.93;;
79019;SDS011;72857;44.740;37.770;2023-09-19T19:32:53;16.75;;;6.40;;
79019;SDS011;72857;44.740;37.770;2023-09-19T19:33:54;16.13;;;6.38;;
79019;SDS011;72857;44.740;37.770;2023-09-19T19:34:57;12.23;;;5.55;;
79019;SDS011;72857;44.740;37.770;2023-09-19T19:36:05;10.55;;;6.18;;
79019;SDS011;72857;44.740;37.770;2023-09-19T19:37:08;10.63;;;6.82;;
79019;SDS011;72857;44.740;37.770;2023-09-19T19:38:13;15.73;;;6.10;;
79019;SDS011;72857;44.740;37.770;2023-09-19T19:39:14;20.02;;;6.00;;
79019;SDS011;72857;44.740;37.770;2023-09-19T19:40:16;10.40;;;5.03;;
79019;SDS011;72857;44.740;37.770;2023-09-19T19:41:17;13.35;;;5.95;;
79019;SDS011;72857;44.740;37.770;2023-09-19T19:42:19;8.45;;;5.70;;
79019;SDS011;72857;44.740;37.770;2023-09-19T19:43:21;12.32;;;5.50;;
79019;SDS011;72857;44.740;37.770;2023-09-19T19:44:22;10.15;;;5.45;;
79019;SDS011;72857;44.740;37.770;2023-09-19T19:45:27;13.20;;;6.15;;
79019;SDS011;72857;44.740;37.770;2023-09-19T19:46:28;12.95;;;4.93;;
79019;SDS011;72857;44.740;37.770;2023-09-19T19:47:30;11.32;;;5.32;;
79019;SDS011;72857;44.740;37.770;2023-09-19T19:48:33;11.65;;;5.53;;
79019;SDS011;72857;44.740;37.770;2023-09-19T19:49:42;11.50;;;5.65;;
79019;SDS011;72857;44.740;37.770;2023-09-19T19:50:44;11.55;;;5.78;;
79019;SDS011;72857;44.740;37.770;2023-09-19T19:51:45;13.35;;;5.38;;
79019;SDS011;72857;44.740;37.770;2023-09-19T19:52:52;30.52;;;6.97;;
79019;SDS011;72857;44.740;37.770;2023-09-19T19:54:03;13.13;;;5.43;;
79019;SDS011;72857;44.740;37.770;2023-09-19T19:55:05;14.63;;;5.40;;
79019;SDS011;72857;44.740;37.770;2023-09-19T19:56:06;11.85;;;5.03;;
79019;SDS011;72857;44.740;37.770;2023-09-19T19:57:09;9.63;;;4.20;;
79019;SDS011;72857;44.740;37.770;2023-09-19T19:58:11;11.02;;;5.05;;
79019;SDS011;72857;44.740;37.770;2023-09-19T19:59:16;18.80;;;7.35;;
79019;SDS011;72857;44.740;37.770;2023-09-19T20:00:18;8.27;;;4.45;;
79019;SDS011;72857;44.740;37.770;2023-09-19T20:01:21;12.57;;;4.25;;
79019;SDS011;72857;44.740;37.770;2023-09-19T20:02:23;12.82;;;4.63;;
79019;SDS011;72857;44.740;37.770;2023-09-19T20:03:25;13.00;;;4.20;;
79019;SDS011;72857;44.740;37.770;2023-09-19T20:04:27;11.52;;;5.07;;
79019;SDS011;72857;44.740;37.770;2023-09-19T20:05:29;11.05;;;4.85;;
79019;SDS011;72857;44.740;37.770;2023-09-19T20:06:31;8.82;;;4.40;;
79019;SDS011;72857;44.740;37.770;2023-09-19T20:07:33;14.13;;;5.78;;
79019;SDS011;72857;44.740;37.770;2023-09-19T20:08:35;12.63;;;5.32;;
79019;SDS011;72857;44.740;37.770;2023-09-19T20:09:36;12.07;;;4.63;;
79019;SDS011;72857;44.740;37.770;2023-09-19T20:10:40;15.80;;;9.77;;
79019;SDS011;72857;44.740;37.770;2023-09-19T20:11:42;12.10;;;6.45;;
79019;SDS011;72857;44.740;37.770;2023-09-19T20:12:44;13.73;;;6.32;;
79019;SDS011;72857;44.740;37.770;2023-09-19T20:13:46;9.95;;;5.82;;
79019;SDS011;72857;44.740;37.770;2023-09-19T20:14:47;11.93;;;5.00;;
79019;SDS011;72857;44.740;37.770;2023-09-19T20:15:55;13.82;;;4.95;;
79019;SDS011;72857;44.740;37.770;2023-09-19T20:16:57;14.00;;;5.47;;
79019;SDS011;72857;44.740;37.770;2023-09-19T20:18:01;12.38;;;6.25;;
79019;SDS011;72857;44.740;37.770;2023-09-19T20:19:03;12.27;;;4.75;;
79019;SDS011;72857;44.740;37.770;2023-09-19T20:20:08;10.02;;;4.85;;
79019;SDS011;72857;44.740;37.770;2023-09-19T20:21:19;13.65;;;5.10;;
79019;SDS011;72857;44.740;37.770;2023-09-19T20:22:23;13.63;;;5.40;;
79019;SDS011;72857;44.740;37.770;2023-09-19T20:23:25;15.25;;;5.78;;
79019;SDS011;72857;44.740;37.770;2023-09-19T20:24:28;19.17;;;6.57;;
79019;SDS011;72857;44.740;37.770;2023-09-19T20:25:30;13.77;;;5.28;;
79019;SDS011;72857;44.740;37.770;2023-09-19T20:26:35;12.00;;;5.20;;
79019;SDS011;72857;44.740;37.770;2023-09-19T20:27:41;14.52;;;5.20;;
79019;SDS011;72857;44.740;37.770;2023-09-19T20:28:43;12.00;;;4.75;;
79019;SDS011;72857;44.740;37.770;2023-09-19T20:29:45;9.65;;;5.00;;
79019;SDS011;72857;44.740;37.770;2023-09-19T20:30:47;14.57;;;4.68;;
79019;SDS011;72857;44.740;37.770;2023-09-19T20:31:51;14.05;;;4.57;;
79019;SDS011;72857;44.740;37.770;2023-09-19T20:32:54;18.08;;;5.20;;
79019;SDS011;72857;44.740;37.770;2023-09-19T20:33:57;14.40;;;5.28;;
79019;SDS011;72857;44.740;37.770;2023-09-19T20:35:02;11.48;;;5.50;;
79019;SDS011;72857;44.740;37.770;2023-09-19T20:36:05;8.35;;;5.53;;
79019;SDS011;72857;44.740;37.770;2023-09-19T20:37:10;12.48;;;5.55;;
79019;SDS011;72857;44.740;37.770;2023-09-19T20:38:12;14.70;;;5.53;;
79019;SDS011;72857;44.740;37.770;2023-09-19T20:39:14;9.63;;;5.13;;
79019;SDS011;72857;44.740;37.770;2023-09-19T20:40:18;15.55;;;5.30;;
79019;SDS011;72857;44.740;37.770;2023-09-19T20:41:23;14.68;;;5.80;;
79019;SDS011;72857;44.740;37.770;2023-09-19T20:42:26;17.17;;;7.65;;
79019;SDS011;72857;44.740;37.770;2023-09-19T20:43:40;11.27;;;5.50;;
79019;SDS011;72857;44.740;37.770;2023-09-19T20:44:50;15.50;;;7.13;;
79019;SDS011;72857;44.740;37.770;2023-09-19T20:46:01;15.43;;;5.47;;
79019;SDS011;72857;44.740;37.770;2023-09-19T20:47:04;16.02;;;5.32;;
79019;SDS011;72857;44.740;37.770;2023-09-19T20:48:06;12.25;;;5.32;;
79019;SDS011;72857;44.740;37.770;2023-09-19T20:49:08;19.23;;;5.55;;
79019;SDS011;72857;44.740;37.770;2023-09-19T20:50:09;16.30;;;5.72;;
79019;SDS011;72857;44.740;37.770;2023-09-19T20:51:11;12.77;;;5.20;;
79019;SDS011;72857;44.740;37.770;2023-09-19T20:52:16;10.65;;;4.25;;
79019;SDS011;72857;44.740;37.770;2023-09-19T20:53:17;9.25;;;5.25;;
79019;SDS011;72857;44.740;37.770;2023-09-19T20:54:19;12.65;;;5.22;;
79019;SDS011;72857;44.740;37.770;2023-09-19T20:55:20;14.90;;;4.72;;
79019;SDS011;72857;44.740;37.770;2023-09-19T20:56:21;9.68;;;4.80;;
79019;SDS011;72857;44.740;37.770;2023-09-19T20:57:22;10.55;;;4.60;;
79019;SDS011;72857;44.740;37.770;2023-09-19T20:58:24;13.20;;;4.53;;
79019;SDS011;72857;44.740;37.770;2023-09-19T20:59:26;11.30;;;4.50;;
79019;SDS011;72857;44.740;37.770;2023-09-19T21:00:27;15.80;;;4.78;;
79019;SDS011;72857;44.740;37.770;2023-09-19T21:01:29;11.63;;;4.50;;
79019;SDS011;72857;44.740;37.770;2023-09-19T21:02:33;18.55;;;4.88;;
79019;SDS011;72857;44.740;37.770;2023-09-19T21:03:35;11.55;;;4.78;;
79019;SDS011;72857;44.740;37.770;2023-09-19T21:04:38;10.73;;;5.03;;
79019;SDS011;72857;44.740;37.770;2023-09-19T21:05:39;12.73;;;4.72;;
79019;SDS011;72857;44.740;37.770;2023-09-19T21:06:41;11.18;;;5.47;;
79019;SDS011;72857;44.740;37.770;2023-09-19T21:07:42;13.18;;;5.38;;
79019;SDS011;72857;44.740;37.770;2023-09-19T21:08:44;21.52;;;5.50;;
79019;SDS011;72857;44.740;37.770;2023-09-19T21:09:45;11.32;;;4.70;;
79019;SDS011;72857;44.740;37.770;2023-09-19T21:10:47;9.27;;;5.03;;
79019;SDS011;72857;44.740;37.770;2023-09-19T21:11:48;11.23;;;4.70;;
79019;SDS011;72857;44.740;37.770;2023-09-19T21:12:49;14.65;;;6.57;;
79019;SDS011;72857;44.740;37.770;2023-09-19T21:13:51;10.07;;;4.75;;
79019;SDS011;72857;44.740;37.770;2023-09-19T21:14:53;8.35;;;5.10;;
79019;SDS011;72857;44.740;37.770;2023-09-19T21:15:56;15.48;;;5.05;;
79019;SDS011;72857;44.740;37.770;2023-09-19T21:16:58;14.77;;;5.00;;
79019;SDS011;72857;44.740;37.770;2023-09-19T21:17:59;10.73;;;4.35;;
79019;SDS011;72857;44.740;37.770;2023-09-19T21:19:00;12.70;;;4.38;;
79019;SDS011;72857;44.740;37.770;2023-09-19T21:20:04;11.32;;;4.90;;
79019;SDS011;72857;44.740;37.770;2023-09-19T21:21:09;9.25;;;4.13;;
79019;SDS011;72857;44.740;37.770;2023-09-19T21:22:14;13.63;;;4.20;;
79019;SDS011;72857;44.740;37.770;2023-09-19T21:23:16;8.77;;;4.40;;
79019;SDS011;72857;44.740;37.770;2023-09-19T21:24:17;12.85;;;4.38;;
79019;SDS011;72857;44.740;37.770;2023-09-19T21:26:23;12.07;;;4.18;;
79019;SDS011;72857;44.740;37.770;2023-09-19T21:27:24;11.43;;;3.67;;
79019;SDS011;72857;44.740;37.770;2023-09-19T21:28:26;11.23;;;4.38;;
79019;SDS011;72857;44.740;37.770;2023-09-19T21:29:28;7.85;;;3.92;;
79019;SDS011;72857;44.740;37.770;2023-09-19T21:30:30;8.77;;;4.20;;